Time;durP1;ratioP1;P1;durP2;ratioP2;P2;SDS_P1;SDS_P2;PMS_P1;PMS_P2;Temp;Humidity;BMP_temperature;BMP_pressure;BME280_temperature;BME280_humidity;BME280_pressure;Samples;Min_cycle;Max_cycle;Signal;HPM_P1;HPM_P2
2022/07/23 00:00:41;;;;;;;5.10;2.92;;;;;;;16.59;76.36;101772.16;5074025;28;20416;-70
2022/07/23 00:03:08;;;;;;;7.03;3.10;;;;;;;16.56;76.55;101774.94;5064878;28;20045;-70
2022/07/23 00:05:35;;;;;;;5.95;3.33;;;;;;;16.52;76.61;101762.69;5072753;28;20100;-70
2022/07/23 00:08:05;;;;;;;6.43;2.90;;;;;;;16.51;76.80;101760.09;5071648;28;20037;-70
2022/07/23 00:10:41;;;;;;;5.57;3.58;;;;;;;16.48;76.99;101762.88;5069017;28;20045;-70
2022/07/23 00:13:08;;;;;;;3.90;3.20;;;;;;;16.42;77.31;101764.88;5062359;28;20581;-69
2022/07/23 00:15:36;;;;;;;6.05;3.60;;;;;;;16.37;77.14;101758.84;5062197;28;20041;-70
2022/07/23 00:18:03;;;;;;;5.82;3.72;;;;;;;16.32;77.43;101758.19;5053926;28;20037;-70
2022/07/23 00:20:30;;;;;;;5.95;3.65;;;;;;;16.24;77.46;101755.81;5063734;28;20087;-70
2022/07/23 00:22:57;;;;;;;5.05;3.20;;;;;;;16.18;77.89;101758.69;5075406;28;20116;-69
2022/07/23 00:25:27;;;;;;;4.38;2.95;;;;;;;16.14;78.20;101755.31;5074237;28;20961;-69
2022/07/23 00:27:59;;;;;;;4.10;3.40;;;;;;;16.09;78.50;101751.97;5074129;28;20052;-69
2022/07/23 00:30:29;;;;;;;6.63;3.65;;;;;;;16.06;78.56;101761.88;5072357;28;20080;-69
2022/07/23 00:33:01;;;;;;;7.57;3.78;;;;;;;15.99;78.46;101750.59;5071055;28;20045;-70
2022/07/23 00:35:32;;;;;;;5.45;3.50;;;;;;;15.93;78.94;101754.34;5063626;28;20045;-71
2022/07/23 00:38:01;;;;;;;7.45;3.75;;;;;;;15.89;79.08;101762.50;5104303;28;20045;-72
2022/07/23 00:40:29;;;;;;;6.97;3.50;;;;;;;15.82;79.50;101746.75;5071669;28;20040;-71
2022/07/23 00:42:57;;;;;;;4.72;3.33;;;;;;;15.80;79.54;101739.75;5073090;28;20119;-70
2022/07/23 00:45:25;;;;;;;5.35;3.80;;;;;;;15.82;79.44;101743.22;5070650;28;20037;-70
2022/07/23 00:47:52;;;;;;;7.93;3.60;;;;;;;15.76;79.52;101746.97;5072444;28;20049;-70
2022/07/23 00:50:20;;;;;;;6.40;3.85;;;;;;;15.75;79.75;101755.03;5073084;28;20045;-69
2022/07/23 00:52:48;;;;;;;5.18;3.70;;;;;;;15.72;79.89;101753.31;5073982;28;20040;-69
2022/07/23 00:55:16;;;;;;;7.07;3.78;;;;;;;15.74;79.77;101750.63;5079707;28;20049;-69
2022/07/23 00:57:43;;;;;;;5.57;4.10;;;;;;;15.75;79.68;101749.72;5065757;28;20139;-70
2022/07/23 01:00:14;;;;;;;6.35;3.72;;;;;;;15.70;79.25;101747.22;5071592;28;20135;-71
2022/07/23 01:02:42;;;;;;;5.40;3.78;;;;;;;15.66;79.32;101749.13;5071459;28;20496;-71
2022/07/23 01:05:10;;;;;;;8.43;4.00;;;;;;;15.60;79.72;101752.00;5071542;28;20095;-71
2022/07/23 01:07:38;;;;;;;10.85;4.30;;;;;;;15.53;79.93;101753.16;5066888;28;20044;-71
2022/07/23 01:10:30;;;;;;;5.65;4.38;;;;;;;15.48;79.93;101756.00;5062743;28;20512;-71
2022/07/23 01:12:54;;;;;;;5.72;3.80;;;;;;;15.40;79.94;101760.72;5085537;28;20049;-70
2022/07/23 01:15:22;;;;;;;5.85;3.58;;;;;;;15.43;80.34;101751.75;5070977;28;20826;-70
2022/07/23 01:17:50;;;;;;;7.43;4.10;;;;;;;15.46;80.39;101754.31;5086667;28;20049;-70
2022/07/23 01:20:19;;;;;;;8.27;4.53;;;;;;;15.48;80.44;101749.78;5084365;28;20436;-70
2022/07/23 01:22:46;;;;;;;6.60;4.55;;;;;;;15.46;80.29;101744.53;5089674;28;20558;-72
2022/07/23 01:25:14;;;;;;;8.13;4.32;;;;;;;15.47;80.44;101748.94;5071857;28;20124;-70
2022/07/23 01:27:49;;;;;;;7.80;4.28;;;;;;;15.47;80.48;101746.28;5090057;28;20068;-72
2022/07/23 01:30:16;;;;;;;9.50;4.78;;;;;;;15.41;80.11;101742.97;5071400;28;20048;-72
2022/07/23 01:32:43;;;;;;;5.05;3.97;;;;;;;15.40;80.54;101739.47;5068928;28;20041;-70
2022/07/23 01:35:11;;;;;;;7.03;4.20;;;;;;;15.43;80.35;101731.38;5070850;28;20521;-71
2022/07/23 01:37:39;;;;;;;7.32;4.63;;;;;;;15.44;80.19;101725.13;5075729;28;20054;-71
2022/07/23 01:40:07;;;;;;;6.32;4.53;;;;;;;15.41;79.97;101733.22;5085627;28;20826;-71
2022/07/23 01:42:36;;;;;;;5.00;3.85;;;;;;;15.35;79.87;101722.81;5081284;28;20068;-71
2022/07/23 01:45:05;;;;;;;7.88;4.93;;;;;;;15.26;80.18;101729.31;5069484;28;20071;-71
2022/07/23 01:47:33;;;;;;;7.13;4.50;;;;;;;15.23;80.35;101729.44;5072855;28;20049;-71
2022/07/23 01:50:00;;;;;;;4.80;4.13;;;;;;;15.19;80.58;101736.66;5091178;28;20800;-71
2022/07/23 01:52:40;;;;;;;6.82;4.18;;;;;;;15.12;80.54;101740.44;5088217;28;20041;-71
2022/07/23 01:55:09;;;;;;;5.18;4.53;;;;;;;15.05;80.81;101738.91;5070266;28;20049;-70
2022/07/23 01:57:47;;;;;;;7.47;4.68;;;;;;;15.00;80.81;101732.91;5069505;28;20048;-70
2022/07/23 02:00:19;;;;;;;8.52;4.55;;;;;;;14.96;80.88;101733.94;5070310;28;20037;-70
2022/07/23 02:02:48;;;;;;;9.23;4.40;;;;;;;14.89;80.95;101736.81;5062706;28;20045;-69
2022/07/23 02:05:15;;;;;;;7.88;4.88;;;;;;;14.83;81.04;101729.03;5069021;28;20865;-70
2022/07/23 02:07:45;;;;;;;7.32;5.00;;;;;;;14.76;81.12;101730.16;5069583;28;20037;-69
2022/07/23 02:10:13;;;;;;;10.52;5.40;;;;;;;14.69;81.17;101732.16;5069783;28;20471;-69
2022/07/23 02:12:40;;;;;;;5.78;4.63;;;;;;;14.71;81.52;101737.41;5086069;28;20045;-70
2022/07/23 02:15:09;;;;;;;9.68;5.05;;;;;;;14.72;81.79;101729.41;5087441;28;20535;-69
2022/07/23 02:17:39;;;;;;;7.88;5.75;;;;;;;14.70;81.70;101736.56;5084271;28;20045;-70
2022/07/23 02:20:09;;;;;;;6.65;4.75;;;;;;;14.66;81.47;101742.84;5064759;28;20049;-70
2022/07/23 02:22:38;;;;;;;6.43;4.95;;;;;;;14.63;81.60;101739.41;5084971;28;20091;-70
2022/07/23 02:25:07;;;;;;;9.90;5.20;;;;;;;14.57;81.59;101736.06;5071862;28;20049;-70
2022/07/23 02:27:34;;;;;;;9.23;5.65;;;;;;;14.52;81.71;101734.47;5068411;28;20045;-69
2022/07/23 02:30:05;;;;;;;7.63;5.85;;;;;;;14.46;81.76;101735.53;5081835;28;20069;-70
2022/07/23 02:32:35;;;;;;;7.13;5.70;;;;;;;14.41;81.88;101721.53;5070823;28;20504;-70
2022/07/23 02:35:04;;;;;;;7.30;5.18;;;;;;;14.37;81.79;101731.38;5085119;28;20053;-70
2022/07/23 02:37:32;;;;;;;6.55;4.88;;;;;;;14.33;81.68;101723.59;5069774;28;20056;-70
2022/07/23 02:39:59;;;;;;;7.85;5.15;;;;;;;14.28;81.79;101727.28;5063619;28;20043;-69
2022/07/23 02:42:26;;;;;;;6.45;5.47;;;;;;;14.24;81.84;101733.56;5054945;28;20041;-70
2022/07/23 02:44:53;;;;;;;9.65;5.55;;;;;;;14.19;82.04;101734.63;5066169;28;20045;-70
2022/07/23 02:47:21;;;;;;;9.60;5.28;;;;;;;14.16;82.00;101729.41;5073845;28;20041;-69
2022/07/23 02:49:48;;;;;;;6.97;5.63;;;;;;;14.12;82.21;101731.28;5073504;28;20498;-70
2022/07/23 02:52:16;;;;;;;9.38;5.70;;;;;;;14.10;82.23;101730.47;5076870;28;20039;-70
2022/07/23 02:54:43;;;;;;;7.38;5.20;;;;;;;14.05;82.25;101733.25;5084014;28;20037;-70
2022/07/23 02:57:14;;;;;;;8.38;5.20;;;;;;;14.03;82.13;101729.81;5067154;28;20120;-69
2022/07/23 02:59:42;;;;;;;9.82;5.45;;;;;;;14.00;82.27;101727.25;5080059;28;20487;-70
2022/07/23 03:02:09;;;;;;;6.53;5.30;;;;;;;13.96;82.29;101730.91;5067905;28;20092;-69
2022/07/23 03:04:37;;;;;;;7.43;5.00;;;;;;;13.91;82.34;101736.34;5068403;28;20908;-70
2022/07/23 03:07:05;;;;;;;8.55;5.82;;;;;;;13.87;82.64;101737.38;5085871;28;20103;-70
2022/07/23 03:09:32;;;;;;;8.50;6.10;;;;;;;13.84;82.77;101734.78;5070764;28;20056;-69
2022/07/23 03:11:59;;;;;;;8.98;5.55;;;;;;;13.81;82.91;101740.19;5051504;28;20125;-69
2022/07/23 03:14:27;;;;;;;8.73;6.00;;;;;;;13.79;83.06;101734.94;5077874;28;20041;-70
2022/07/23 03:16:55;;;;;;;7.85;5.78;;;;;;;13.75;83.00;101746.53;5089018;28;20551;-70
2022/07/23 03:19:22;;;;;;;7.15;5.95;;;;;;;13.73;83.06;101743.06;5068980;28;20118;-70
2022/07/23 03:21:50;;;;;;;7.88;5.63;;;;;;;13.70;83.37;101742.28;5089752;28;20150;-70
2022/07/23 03:24:20;;;;;;;7.75;5.70;;;;;;;13.66;83.48;101745.03;5079221;28;20111;-70
2022/07/23 03:26:47;;;;;;;7.38;5.43;;;;;;;13.64;83.84;101744.19;5075509;28;20072;-70
2022/07/23 03:29:14;;;;;;;8.18;5.60;;;;;;;13.65;83.92;101751.25;5078304;28;20041;-70
2022/07/23 03:31:42;;;;;;;6.95;5.55;;;;;;;13.63;83.87;101752.22;5092241;28;20448;-70
2022/07/23 03:34:10;;;;;;;8.13;5.50;;;;;;;13.63;83.49;101754.84;5078542;28;20128;-69
2022/07/23 03:36:38;;;;;;;7.75;5.60;;;;;;;13.60;83.52;101753.13;5071085;28;20087;-69
2022/07/23 03:39:05;;;;;;;6.97;5.80;;;;;;;13.57;83.36;101750.59;5073466;28;20049;-70
2022/07/23 03:41:38;;;;;;;9.45;6.20;;;;;;;13.56;83.46;101750.63;5068814;28;20045;-70
2022/07/23 03:44:07;;;;;;;8.18;5.55;;;;;;;13.55;83.65;101746.22;5087853;28;20068;-70
2022/07/23 03:46:35;;;;;;;13.27;5.97;;;;;;;13.55;84.02;101751.53;5078032;28;20095;-71
2022/07/23 03:49:02;;;;;;;10.95;6.30;;;;;;;13.56;83.89;101761.22;5079913;28;20041;-71
2022/07/23 03:51:31;;;;;;;7.20;5.78;;;;;;;13.54;83.69;101755.97;5094672;28;20049;-70
2022/07/23 03:53:59;;;;;;;7.55;6.18;;;;;;;13.54;83.74;101755.97;5071420;28;20038;-71
2022/07/23 03:56:26;;;;;;;9.00;6.57;;;;;;;13.53;83.96;101756.88;5073002;28;20077;-70
2022/07/23 03:58:54;;;;;;;9.75;6.05;;;;;;;13.53;84.07;101754.22;5074755;28;20053;-72
2022/07/23 04:01:21;;;;;;;7.93;5.93;;;;;;;13.53;83.90;101748.94;5075007;28;20041;-71
2022/07/23 04:03:48;;;;;;;8.85;6.43;;;;;;;13.54;84.19;101741.84;5076005;28;20045;-71
2022/07/23 04:06:15;;;;;;;9.48;7.25;;;;;;;13.56;84.54;101743.56;5090332;28;20526;-71
2022/07/23 04:08:43;;;;;;;12.30;7.43;;;;;;;13.58;84.81;101752.31;5092433;28;20512;-71
2022/07/23 04:11:10;;;;;;;12.45;8.23;;;;;;;13.61;84.54;101754.88;5075455;28;20456;-71
2022/07/23 04:13:37;;;;;;;10.70;7.30;;;;;;;13.66;84.29;101747.69;5091955;28;20041;-71
2022/07/23 04:16:06;;;;;;;11.60;7.15;;;;;;;13.72;84.21;101751.94;5075296;28;20052;-71
2022/07/23 04:18:33;;;;;;;9.63;7.30;;;;;;;13.77;84.01;101755.31;5073705;28;20134;-71
2022/07/23 04:21:07;;;;;;;10.88;8.10;;;;;;;13.80;83.96;101760.53;5080384;28;20061;-71
2022/07/23 04:23:35;;;;;;;11.65;8.02;;;;;;;13.86;84.16;101759.47;5075892;28;20116;-71
2022/07/23 04:26:03;;;;;;;14.00;8.98;;;;;;;13.96;84.17;101765.34;5091883;28;20056;-71
2022/07/23 04:28:31;;;;;;;13.88;9.43;;;;;;;14.02;84.17;101757.25;5084338;28;20045;-71
2022/07/23 04:30:58;;;;;;;14.13;9.40;;;;;;;14.09;83.93;101758.78;5070681;28;20036;-71
2022/07/23 04:33:26;;;;;;;12.45;8.88;;;;;;;14.20;83.91;101753.13;5082288;28;20498;-71
2022/07/23 04:35:56;;;;;;;12.85;10.27;;;;;;;14.33;83.86;101758.06;5072085;28;20499;-70
2022/07/23 04:38:23;;;;;;;10.07;7.82;;;;;;;14.43;83.75;101768.34;5071108;28;20940;-70
2022/07/23 04:40:54;;;;;;;13.05;9.55;;;;;;;14.54;83.53;101773.31;5087447;28;20041;-70
2022/07/23 04:43:21;;;;;;;12.90;8.88;;;;;;;14.64;83.06;101771.22;5071885;28;20033;-70
2022/07/23 04:45:50;;;;;;;9.77;8.57;;;;;;;14.69;82.79;101771.13;5069284;28;20041;-70
2022/07/23 04:48:20;;;;;;;13.02;8.25;;;;;;;14.80;82.74;101771.63;5072744;28;20045;-70
2022/07/23 04:50:54;;;;;;;12.95;7.95;;;;;;;14.89;82.47;101784.59;5069623;28;20124;-71
2022/07/23 04:53:26;;;;;;;10.32;7.68;;;;;;;14.99;81.89;101771.84;5071980;28;20037;-70
2022/07/23 04:55:57;;;;;;;12.48;8.93;;;;;;;15.13;81.57;101774.03;5072997;28;20128;-71
2022/07/23 04:58:24;;;;;;;11.95;8.13;;;;;;;15.46;80.33;101780.88;5098524;28;20590;-71
2022/07/23 05:00:51;;;;;;;13.60;9.02;;;;;;;15.58;79.43;101777.75;5085793;28;20037;-71
2022/07/23 05:03:19;;;;;;;12.85;8.82;;;;;;;15.46;79.63;101779.09;5071973;28;20059;-71
2022/07/23 05:05:47;;;;;;;12.75;8.52;;;;;;;15.42;80.08;101779.25;5075214;28;20041;-71
2022/07/23 05:08:17;;;;;;;10.15;8.20;;;;;;;15.49;79.83;101783.41;5087310;28;20504;-72
2022/07/23 05:10:49;;;;;;;11.90;8.30;;;;;;;15.48;79.86;101779.91;5072454;28;20047;-72
2022/07/23 05:13:18;;;;;;;10.25;7.72;;;;;;;15.52;80.03;101783.31;5089468;28;20049;-72
2022/07/23 05:15:46;;;;;;;9.88;7.72;;;;;;;15.68;79.58;101783.63;5073049;28;20511;-71
2022/07/23 05:18:14;;;;;;;11.77;8.00;;;;;;;15.99;78.68;101794.00;5074368;28;20047;-70
2022/07/23 05:20:41;;;;;;;12.32;7.80;;;;;;;16.12;77.96;101796.19;5071432;28;20530;-70
2022/07/23 05:23:10;;;;;;;9.90;7.70;;;;;;;16.05;78.19;101798.22;5071221;28;20037;-70
2022/07/23 05:25:37;;;;;;;8.27;6.40;;;;;;;16.13;78.04;101793.47;5088206;28;20524;-70
2022/07/23 05:28:04;;;;;;;9.18;7.57;;;;;;;16.28;76.93;101796.47;5090014;28;20029;-70
2022/07/23 05:30:32;;;;;;;10.50;6.68;;;;;;;16.30;76.95;101799.94;5086171;28;20045;-71
2022/07/23 05:33:02;;;;;;;8.77;6.32;;;;;;;16.35;76.75;101797.94;5068207;28;20033;-71
2022/07/23 05:35:29;;;;;;;9.73;5.88;;;;;;;16.52;76.48;101809.75;5067122;28;20106;-71
2022/07/23 05:38:26;;;;;;;8.23;6.53;;;;;;;17.60;74.08;101801.69;5087218;28;20047;-71
2022/07/23 05:40:55;;;;;;;9.05;5.88;;;;;;;19.79;67.89;101797.25;5085693;28;20519;-71
2022/07/23 05:43:22;;;;;;;8.70;5.57;;;;;;;21.49;62.18;101802.78;5069100;28;20051;-71
2022/07/23 05:45:50;;;;;;;5.35;4.72;;;;;;;22.67;58.41;101807.00;5071236;28;20084;-77
2022/07/23 05:48:18;;;;;;;7.65;5.25;;;;;;;23.64;55.84;101810.25;5089068;28;20127;-71
2022/07/23 05:51:06;;;;;;;6.85;5.18;;;;;;;24.57;53.83;101809.00;5071318;28;20057;-73
2022/07/23 05:53:35;;;;;;;7.13;4.40;;;;;;;25.37;50.61;101818.25;5103177;28;20040;-71
2022/07/23 05:56:09;;;;;;;5.35;3.83;;;;;;;26.17;48.48;101819.16;5087751;28;20044;-71
2022/07/23 05:58:37;;;;;;;4.55;3.53;;;;;;;26.67;46.55;101812.38;5065320;28;20056;-72
2022/07/23 06:01:05;;;;;;;9.55;3.80;;;;;;;26.78;46.25;101811.53;5063332;28;20048;-70
2022/07/23 06:03:40;;;;;;;8.73;3.33;;;;;;;27.12;45.23;101812.22;5082561;28;20504;-70
2022/07/23 06:06:08;;;;;;;5.05;4.00;;;;;;;27.65;44.04;101807.72;5080788;28;20156;-70
2022/07/23 06:08:36;;;;;;;7.68;4.13;;;;;;;27.10;44.76;101811.50;5078717;28;20120;-71
2022/07/23 06:11:08;;;;;;;4.22;3.75;;;;;;;27.94;42.20;101817.81;5079515;28;20044;-69
2022/07/23 06:13:36;;;;;;;5.20;3.40;;;;;;;28.11;41.53;101821.75;5075265;28;20037;-70
2022/07/23 06:16:04;;;;;;;8.20;3.50;;;;;;;26.99;43.05;101816.13;5087469;28;20092;-70
2022/07/23 06:18:31;;;;;;;7.20;3.15;;;;;;;25.23;46.24;101816.59;5056355;28;20135;-70
2022/07/23 06:20:59;;;;;;;5.80;3.13;;;;;;;23.69;47.92;101815.31;5066452;28;20128;-70
2022/07/23 06:23:27;;;;;;;6.63;3.03;;;;;;;22.33;51.87;101817.22;5084585;28;20490;-69
2022/07/23 06:25:54;;;;;;;7.45;3.30;;;;;;;21.51;54.28;101827.69;5066669;28;20125;-69
2022/07/23 06:28:21;;;;;;;5.50;3.17;;;;;;;20.90;56.13;101828.59;5068797;28;20925;-69
2022/07/23 06:30:50;;;;;;;6.50;3.03;;;;;;;20.46;56.82;101834.63;5079150;28;20044;-68
2022/07/23 06:33:17;;;;;;;5.78;3.10;;;;;;;20.10;58.39;101831.25;5070103;28;20432;-69
2022/07/23 06:35:44;;;;;;;6.50;3.13;;;;;;;19.84;59.30;101830.00;5067898;28;20059;-69
2022/07/23 06:38:12;;;;;;;6.03;2.58;;;;;;;19.63;60.02;101830.19;5069083;28;20068;-69
2022/07/23 06:40:43;;;;;;;3.85;2.50;;;;;;;19.46;60.38;101832.88;5082711;28;20047;-68
2022/07/23 06:43:14;;;;;;;3.97;2.58;;;;;;;19.33;60.10;101838.00;5061537;28;20732;-69
2022/07/23 06:45:44;;;;;;;3.85;2.53;;;;;;;19.17;60.25;101837.91;5083230;28;20093;-70
2022/07/23 06:48:11;;;;;;;5.65;3.15;;;;;;;19.05;61.42;101840.25;5084415;28;20854;-69
2022/07/23 06:50:38;;;;;;;5.80;2.80;;;;;;;19.01;61.64;101849.41;5066088;28;20037;-69
2022/07/23 06:53:05;;;;;;;6.63;2.78;;;;;;;18.99;61.62;101842.38;5066479;28;20397;-70
2022/07/23 06:55:35;;;;;;;4.38;3.08;;;;;;;18.95;61.93;101840.81;5080413;28;20084;-70
2022/07/23 06:58:02;;;;;;;6.07;3.53;;;;;;;18.89;62.56;101839.28;5066955;28;20919;-69
2022/07/23 07:00:32;;;;;;;6.15;3.13;;;;;;;18.86;62.52;101832.28;5083314;28;20033;-70
2022/07/23 07:02:59;;;;;;;4.30;3.20;;;;;;;18.86;62.20;101837.63;5084371;28;20029;-70
2022/07/23 07:05:27;;;;;;;5.32;3.08;;;;;;;18.81;63.08;101842.31;5068631;28;20045;-69
2022/07/23 07:07:58;;;;;;;5.28;2.90;;;;;;;18.87;62.35;101847.34;5068894;28;20029;-69
2022/07/23 07:10:25;;;;;;;6.25;3.20;;;;;;;18.88;62.81;101845.56;5064880;28;20096;-69
2022/07/23 07:12:58;;;;;;;4.20;2.83;;;;;;;18.96;62.50;101848.75;5067498;28;20122;-69
2022/07/23 07:15:26;;;;;;;4.97;2.10;;;;;;;19.03;62.78;101842.13;5067367;28;20034;-69
2022/07/23 07:17:53;;;;;;;4.63;2.38;;;;;;;19.14;61.10;101843.41;5083360;28;20258;-70
2022/07/23 07:20:20;;;;;;;4.47;1.98;;;;;;;19.18;61.03;101837.81;5064200;28;20515;-69
2022/07/23 07:22:48;;;;;;;3.70;2.42;;;;;;;19.26;61.46;101840.13;5067217;28;20084;-76
2022/07/23 07:25:15;;;;;;;5.68;1.90;;;;;;;19.36;60.08;101843.19;5067669;28;20095;-70
2022/07/23 07:27:43;;;;;;;3.28;2.25;;;;;;;19.47;59.77;101843.50;5067761;28;20045;-70
2022/07/23 07:30:12;;;;;;;5.30;2.10;;;;;;;19.50;59.99;101846.00;5067126;28;20083;-70
2022/07/23 07:32:42;;;;;;;3.53;1.60;;;;;;;19.58;58.73;101844.75;5066738;28;20052;-69
2022/07/23 07:35:25;;;;;;;2.70;1.35;;;;;;;19.60;58.64;101845.50;5068367;28;20155;-69
2022/07/23 07:37:52;;;;;;;3.60;2.28;;;;;;;19.70;58.70;101858.34;5067826;28;20131;-69
2022/07/23 07:40:20;;;;;;;5.20;1.85;;;;;;;19.68;57.84;101852.19;5065594;28;20061;-69
2022/07/23 07:42:49;;;;;;;5.22;2.35;;;;;;;19.73;58.59;101853.78;5067368;28;20037;-69
2022/07/23 07:45:20;;;;;;;3.50;1.90;;;;;;;19.82;58.29;101858.63;5082593;28;20126;-69
2022/07/23 07:47:47;;;;;;;4.05;1.70;;;;;;;19.90;58.61;101852.88;5067494;28;20068;-69
2022/07/23 07:50:15;;;;;;;2.60;1.63;;;;;;;20.02;58.72;101861.13;5066457;28;20073;-69
2022/07/23 07:52:42;;;;;;;6.05;1.40;;;;;;;20.13;57.46;101859.69;5067789;28;20095;-69
2022/07/23 07:55:10;;;;;;;2.08;1.60;;;;;;;20.16;57.59;101859.50;5067976;28;20052;-69
2022/07/23 07:57:38;;;;;;;3.97;2.38;;;;;;;20.23;55.95;101850.19;5067687;28;20115;-69
2022/07/23 08:00:08;;;;;;;2.05;1.80;;;;;;;20.19;55.90;101853.97;5064051;28;20102;-70
2022/07/23 08:02:51;;;;;;;3.42;1.88;;;;;;;20.11;56.37;101857.06;5067851;28;20095;-69
2022/07/23 08:05:25;;;;;;;3.45;1.88;;;;;;;20.08;57.63;101853.72;5058791;28;20040;-69
2022/07/23 08:07:57;;;;;;;5.50;1.90;;;;;;;20.21;57.25;101867.28;5070627;28;20033;-68
2022/07/23 08:10:26;;;;;;;2.70;1.80;;;;;;;20.37;55.95;101868.19;5074490;28;20029;-68
2022/07/23 08:12:56;;;;;;;4.28;1.75;;;;;;;20.37;56.05;101867.28;5074627;28;20041;-68
2022/07/23 08:15:27;;;;;;;2.58;1.80;;;;;;;20.47;55.63;101876.53;5071843;28;20037;-68
2022/07/23 08:17:55;;;;;;;4.47;1.85;;;;;;;20.43;55.68;101865.16;5073093;28;20040;-69
2022/07/23 08:20:24;;;;;;;5.28;1.77;;;;;;;20.44;56.28;101866.88;5072870;28;20107;-69
2022/07/23 08:22:56;;;;;;;3.85;2.03;;;;;;;20.60;55.92;101866.88;5074106;28;20045;-68
2022/07/23 08:25:31;;;;;;;2.13;1.92;;;;;;;20.71;55.99;101871.59;5073509;28;20049;-69
2022/07/23 08:28:01;;;;;;;4.40;2.33;;;;;;;20.75;54.71;101867.84;5064307;28;20804;-69
2022/07/23 08:30:31;;;;;;;2.80;2.05;;;;;;;20.78;55.88;101865.00;5062308;28;20041;-69
2022/07/23 08:33:06;;;;;;;4.43;2.40;;;;;;;20.90;54.26;101876.81;5084333;28;20037;-69
2022/07/23 08:35:36;;;;;;;3.88;2.13;;;;;;;20.88;54.88;101876.03;5066095;28;20460;-69
2022/07/23 08:38:08;;;;;;;3.63;2.20;;;;;;;20.91;55.39;101877.66;5071911;28;20041;-69
2022/07/23 08:40:42;;;;;;;3.22;2.20;;;;;;;20.95;54.86;101879.22;5075118;28;20041;-69
2022/07/23 08:43:21;;;;;;;3.75;2.53;;;;;;;21.07;54.92;101891.94;5083140;28;20502;-69
2022/07/23 08:45:52;;;;;;;5.13;2.35;;;;;;;21.20;54.88;101878.66;5094175;28;20098;-69
2022/07/23 08:48:24;;;;;;;5.45;2.42;;;;;;;21.31;54.83;101882.53;5083314;28;20049;-69
2022/07/23 08:50:58;;;;;;;6.20;2.40;;;;;;;21.39;55.05;101882.91;5076477;28;20040;-69
2022/07/23 08:53:26;;;;;;;;;;;;;;;21.45;55.33;101879.91;5078424;28;20036;-69
2022/07/23 08:56:01;;;;;;;4.47;2.28;;;;;;;21.59;54.53;101887.13;5087479;28;19925;-69
2022/07/23 08:58:29;;;;;;;7.65;2.63;;;;;;;21.65;54.61;101885.91;5077615;28;20116;-69
2022/07/23 09:00:58;;;;;;;4.57;2.53;;;;;;;21.76;54.79;101882.53;5080070;28;20037;-69
2022/07/23 09:03:38;;;;;;;6.05;2.67;;;;;;;21.81;54.07;101888.50;5076483;28;20500;-69
2022/07/23 09:06:07;;;;;;;6.25;2.53;;;;;;;21.79;53.35;101880.53;5077335;28;20119;-70
2022/07/23 09:08:38;;;;;;;4.40;2.30;;;;;;;21.78;53.82;101883.31;5081259;28;20044;-69
2022/07/23 09:11:09;;;;;;;6.38;2.25;;;;;;;21.84;54.08;101882.94;5078258;28;20045;-70
2022/07/23 09:13:46;;;;;;;4.60;2.40;;;;;;;21.90;53.99;101881.69;5066718;28;20982;-70
2022/07/23 09:16:27;;;;;;;3.53;1.90;;;;;;;22.01;53.21;101882.78;5066852;28;20931;-71
2022/07/23 09:19:04;;;;;;;6.57;2.00;;;;;;;22.17;52.50;101882.66;5066472;28;20045;-70
2022/07/23 09:21:36;;;;;;;4.95;1.90;;;;;;;22.29;52.55;101883.69;5072971;28;20045;-70
2022/07/23 09:24:10;;;;;;;7.65;2.47;;;;;;;22.29;52.40;101889.06;5081727;28;20037;-70
2022/07/23 09:26:44;;;;;;;6.70;2.00;;;;;;;22.37;52.50;101879.66;5059828;28;20551;-70
2022/07/23 09:29:22;;;;;;;3.13;2.20;;;;;;;22.47;52.96;101872.75;5074703;28;20044;-69
2022/07/23 09:31:57;;;;;;;3.50;2.15;;;;;;;22.59;52.99;101880.03;5080935;28;20064;-70
2022/07/23 09:34:26;;;;;;;4.63;1.92;;;;;;;22.72;52.75;101876.56;5074024;28;20142;-69
2022/07/23 09:37:18;;;;;;;4.53;2.00;;;;;;;22.82;52.67;101874.97;5076307;28;20037;-68
2022/07/23 09:39:49;;;;;;;4.25;1.60;;;;;;;22.95;52.30;101883.94;5071445;28;20050;-68
2022/07/23 09:42:25;;;;;;;2.58;1.73;;;;;;;23.18;51.02;101880.69;5069281;28;20095;-68
2022/07/23 09:44:55;;;;;;;5.30;2.00;;;;;;;23.27;50.18;101888.16;5073883;28;20049;-70
2022/07/23 09:47:27;;;;;;;3.97;1.73;;;;;;;23.32;50.17;101882.47;5058925;28;20052;-70
2022/07/23 09:50:00;;;;;;;2.55;1.70;;;;;;;23.33;49.86;101878.81;5071863;28;20179;-69
2022/07/23 09:52:30;;;;;;;2.35;1.67;;;;;;;23.37;49.77;101880.31;5068840;28;20049;-69
2022/07/23 09:55:05;;;;;;;2.70;1.73;;;;;;;23.56;49.62;101872.69;5070423;28;20041;-70
2022/07/23 09:57:34;;;;;;;3.10;2.30;;;;;;;23.69;48.65;101875.41;5068163;28;20108;-70
2022/07/23 10:00:08;;;;;;;3.83;1.98;;;;;;;23.66;49.12;101872.94;5078289;28;20086;-71
2022/07/23 10:02:38;;;;;;;5.47;2.08;;;;;;;23.75;49.42;101881.31;5075422;28;20578;-70
2022/07/23 10:05:30;;;;;;;7.80;2.45;;;;;;;23.80;48.79;101858.50;5072643;28;20040;-70
2022/07/23 10:08:19;;;;;;;2.95;1.73;;;;;;;23.81;48.61;101864.75;5050078;28;20061;-71
2022/07/23 10:11:11;;;;;;;6.22;2.05;;;;;;;23.93;48.41;101874.63;5070326;28;20134;-70
2022/07/23 10:14:02;;;;;;;3.75;1.80;;;;;;;23.88;48.69;101872.28;5063870;28;20037;-70
2022/07/23 10:16:41;;;;;;;3.13;1.30;;;;;;;23.96;48.20;101865.53;5083310;28;20044;-70
2022/07/23 10:19:09;;;;;;;4.57;1.73;;;;;;;24.01;47.92;101871.44;5068191;28;20092;-69
2022/07/23 10:21:51;;;;;;;3.38;1.70;;;;;;;24.14;48.31;101874.09;5068837;28;20048;-70
2022/07/23 10:24:57;;;;;;;4.35;1.85;;;;;;;24.26;46.93;101873.22;5068223;28;20037;-71
2022/07/23 10:27:52;;;;;;;3.17;2.05;;;;;;;24.24;47.13;101872.47;5074096;28;20068;-71
2022/07/23 10:30:42;;;;;;;4.72;2.13;;;;;;;24.28;46.95;101863.19;5069388;28;20987;-70
2022/07/23 10:33:29;;;;;;;4.32;1.60;;;;;;;24.29;47.20;101869.44;5070523;28;20207;-70
2022/07/23 10:36:09;;;;;;;3.55;2.03;;;;;;;24.27;47.52;101871.38;5065948;28;20092;-70
2022/07/23 10:39:14;;;;;;;4.95;1.98;;;;;;;24.33;47.82;101874.50;5069600;28;20530;-70
2022/07/23 10:41:42;;;;;;;3.83;1.70;;;;;;;24.40;46.90;101872.22;5060688;28;20941;-71
2022/07/23 10:44:11;;;;;;;5.30;1.83;;;;;;;24.55;46.11;101872.94;5068705;28;20048;-70
2022/07/23 10:49:46;;;;;;;3.78;1.85;;;;;;;24.70;46.45;101862.88;5073062;28;20040;-71
2022/07/23 10:52:39;;;;;;;4.80;2.03;;;;;;;24.79;45.48;101872.13;5074631;28;20515;-70
2022/07/23 10:55:09;;;;;;;2.38;2.08;;;;;;;24.79;44.78;101861.34;5083194;28;20033;-70
2022/07/23 10:57:49;;;;;;;5.75;2.00;;;;;;;24.73;45.32;101869.84;5066942;28;20072;-71
2022/07/23 11:00:22;;;;;;;4.10;1.83;;;;;;;24.72;45.11;101862.78;5063031;28;20083;-70
2022/07/23 11:02:54;;;;;;;5.03;1.90;;;;;;;24.75;44.88;101859.81;5072195;28;20090;-70
2022/07/23 11:05:26;;;;;;;3.17;1.90;;;;;;;24.78;44.53;101867.69;5066098;28;20045;-70
2022/07/23 11:08:07;;;;;;;5.55;1.65;;;;;;;24.81;43.83;101871.03;5049601;28;20046;-70
2022/07/23 11:11:08;;;;;;;7.47;1.60;;;;;;;24.88;44.50;101866.03;5047540;28;20049;-70
2022/07/23 11:13:44;;;;;;;2.95;1.85;;;;;;;24.98;43.22;101868.03;5047378;28;20103;-70
2022/07/23 11:16:21;;;;;;;5.35;2.13;;;;;;;24.98;43.05;101863.47;5053787;28;20516;-70
2022/07/23 11:18:48;;;;;;;3.97;1.90;;;;;;;25.06;42.59;101868.31;5068114;28;20104;-71
2022/07/23 11:21:21;;;;;;;1.65;1.30;;;;;;;25.07;42.37;101868.22;5068004;28;20808;-70
2022/07/23 11:24:08;;;;;;;4.45;1.42;;;;;;;25.16;42.16;101877.41;5049543;28;20038;-70
2022/07/23 11:26:42;;;;;;;2.47;1.88;;;;;;;25.26;42.55;101867.63;5058054;28;21004;-70
2022/07/23 11:29:25;;;;;;;2.38;1.58;;;;;;;25.40;41.06;101873.84;5068355;28;20037;-70
2022/07/23 11:32:07;;;;;;;4.35;1.70;;;;;;;25.50;40.78;101868.59;5064975;28;20692;-70
2022/07/23 11:34:42;;;;;;;2.95;1.60;;;;;;;25.62;40.74;101867.63;5069321;28;20500;-71
2022/07/23 11:37:26;;;;;;;4.47;1.70;;;;;;;25.68;41.44;101861.75;5068125;28;20048;-70
2022/07/23 11:39:56;;;;;;;2.42;1.45;;;;;;;25.83;38.87;101867.78;5067268;28;20466;-70
2022/07/23 11:42:24;;;;;;;3.08;1.60;;;;;;;25.83;39.04;101865.09;5070650;28;20476;-70
2022/07/23 11:44:59;;;;;;;2.53;1.40;;;;;;;25.92;39.19;101868.03;5087452;28;20092;-70